sensor_id;sensor_type;location;lat;lon;timestamp;P1;durP1;ratioP1;P2;durP2;ratioP2
34317;SDS011;20582;52.196;20.952;2023-06-22T00:01:50;43.53;;;38.95;;
34317;SDS011;20582;52.196;20.952;2023-06-22T00:04:16;43.13;;;38.58;;
34317;SDS011;20582;52.196;20.952;2023-06-22T00:06:42;42.85;;;38.15;;
34317;SDS011;20582;52.196;20.952;2023-06-22T00:09:08;43.47;;;38.88;;
34317;SDS011;20582;52.196;20.952;2023-06-22T00:11:35;42.50;;;38.10;;
34317;SDS011;20582;52.196;20.952;2023-06-22T00:14:01;43.05;;;38.53;;
34317;SDS011;20582;52.196;20.952;2023-06-22T00:16:27;42.38;;;37.88;;
34317;SDS011;20582;52.196;20.952;2023-06-22T00:18:53;41.42;;;37.10;;
34317;SDS011;20582;52.196;20.952;2023-06-22T00:21:19;42.05;;;37.65;;
34317;SDS011;20582;52.196;20.952;2023-06-22T00:23:46;41.25;;;36.85;;
34317;SDS011;20582;52.196;20.952;2023-06-22T00:26:12;39.97;;;35.67;;
34317;SDS011;20582;52.196;20.952;2023-06-22T00:28:38;44.00;;;37.05;;
34317;SDS011;20582;52.196;20.952;2023-06-22T00:31:04;41.15;;;36.78;;
34317;SDS011;20582;52.196;20.952;2023-06-22T00:33:30;40.15;;;35.92;;
34317;SDS011;20582;52.196;20.952;2023-06-22T00:35:56;45.13;;;37.92;;
34317;SDS011;20582;52.196;20.952;2023-06-22T00:38:22;42.40;;;37.83;;
34317;SDS011;20582;52.196;20.952;2023-06-22T00:40:48;43.30;;;38.70;;
34317;SDS011;20582;52.196;20.952;2023-06-22T00:43:14;43.45;;;38.85;;
34317;SDS011;20582;52.196;20.952;2023-06-22T00:45:40;42.63;;;37.95;;
34317;SDS011;20582;52.196;20.952;2023-06-22T00:48:06;43.97;;;39.25;;
34317;SDS011;20582;52.196;20.952;2023-06-22T00:50:33;44.88;;;39.83;;
34317;SDS011;20582;52.196;20.952;2023-06-22T00:53:04;44.35;;;38.67;;
34317;SDS011;20582;52.196;20.952;2023-06-22T00:55:35;43.38;;;38.75;;
34317;SDS011;20582;52.196;20.952;2023-06-22T00:58:02;43.30;;;38.53;;
34317;SDS011;20582;52.196;20.952;2023-06-22T01:00:30;43.95;;;38.72;;
34317;SDS011;20582;52.196;20.952;2023-06-22T01:02:57;43.78;;;39.22;;
34317;SDS011;20582;52.196;20.952;2023-06-22T01:05:23;44.97;;;38.33;;
34317;SDS011;20582;52.196;20.952;2023-06-22T01:16:23;41.67;;;37.17;;
34317;SDS011;20582;52.196;20.952;2023-06-22T01:18:50;43.20;;;38.47;;
34317;SDS011;20582;52.196;20.952;2023-06-22T01:21:18;42.60;;;38.08;;
34317;SDS011;20582;52.196;20.952;2023-06-22T01:23:56;42.83;;;38.15;;
34317;SDS011;20582;52.196;20.952;2023-06-22T01:28:54;43.97;;;38.42;;
34317;SDS011;20582;52.196;20.952;2023-06-22T01:31:24;43.33;;;38.72;;
34317;SDS011;20582;52.196;20.952;2023-06-22T01:33:54;43.38;;;38.72;;
34317;SDS011;20582;52.196;20.952;2023-06-22T01:36:21;43.03;;;38.47;;
34317;SDS011;20582;52.196;20.952;2023-06-22T01:38:47;44.63;;;39.67;;
34317;SDS011;20582;52.196;20.952;2023-06-22T01:41:13;45.30;;;40.50;;
34317;SDS011;20582;52.196;20.952;2023-06-22T01:43:40;46.47;;;41.38;;
34317;SDS011;20582;52.196;20.952;2023-06-22T01:46:06;48.60;;;42.58;;
34317;SDS011;20582;52.196;20.952;2023-06-22T01:48:32;50.60;;;43.50;;
34317;SDS011;20582;52.196;20.952;2023-06-22T01:50:58;52.63;;;44.00;;
34317;SDS011;20582;52.196;20.952;2023-06-22T01:53:24;52.25;;;45.50;;
34317;SDS011;20582;52.196;20.952;2023-06-22T01:55:51;49.60;;;44.30;;
34317;SDS011;20582;52.196;20.952;2023-06-22T01:58:17;49.95;;;44.03;;
34317;SDS011;20582;52.196;20.952;2023-06-22T02:00:50;50.40;;;44.72;;
34317;SDS011;20582;52.196;20.952;2023-06-22T02:03:19;55.80;;;46.28;;
34317;SDS011;20582;52.196;20.952;2023-06-22T02:05:49;56.53;;;49.47;;
34317;SDS011;20582;52.196;20.952;2023-06-22T02:08:17;57.13;;;49.30;;
34317;SDS011;20582;52.196;20.952;2023-06-22T02:10:45;57.65;;;50.00;;
34317;SDS011;20582;52.196;20.952;2023-06-22T02:13:12;55.30;;;49.13;;
34317;SDS011;20582;52.196;20.952;2023-06-22T02:15:38;56.95;;;50.45;;
34317;SDS011;20582;52.196;20.952;2023-06-22T02:18:04;67.38;;;54.92;;
34317;SDS011;20582;52.196;20.952;2023-06-22T02:20:31;59.40;;;51.15;;
34317;SDS011;20582;52.196;20.952;2023-06-22T02:22:57;64.13;;;55.63;;
34317;SDS011;20582;52.196;20.952;2023-06-22T02:25:23;62.97;;;53.47;;
34317;SDS011;20582;52.196;20.952;2023-06-22T02:27:48;65.68;;;55.05;;
34317;SDS011;20582;52.196;20.952;2023-06-22T02:30:15;69.35;;;58.05;;
34317;SDS011;20582;52.196;20.952;2023-06-22T02:32:41;79.28;;;64.00;;
34317;SDS011;20582;52.196;20.952;2023-06-22T02:35:08;78.53;;;63.00;;
34317;SDS011;20582;52.196;20.952;2023-06-22T02:37:35;84.70;;;65.50;;
34317;SDS011;20582;52.196;20.952;2023-06-22T02:40:05;85.80;;;64.03;;
34317;SDS011;20582;52.196;20.952;2023-06-22T02:42:32;97.70;;;69.00;;
34317;SDS011;20582;52.196;20.952;2023-06-22T02:44:58;89.15;;;67.15;;
34317;SDS011;20582;52.196;20.952;2023-06-22T02:47:24;92.00;;;67.60;;
34317;SDS011;20582;52.196;20.952;2023-06-22T02:49:50;89.95;;;66.85;;
34317;SDS011;20582;52.196;20.952;2023-06-22T02:52:16;93.20;;;69.15;;
34317;SDS011;20582;52.196;20.952;2023-06-22T02:54:42;98.85;;;69.03;;
34317;SDS011;20582;52.196;20.952;2023-06-22T02:57:10;98.40;;;70.47;;
34317;SDS011;20582;52.196;20.952;2023-06-22T02:59:38;92.97;;;67.47;;
34317;SDS011;20582;52.196;20.952;2023-06-22T03:02:05;95.78;;;69.53;;
34317;SDS011;20582;52.196;20.952;2023-06-22T03:04:32;98.13;;;68.68;;
34317;SDS011;20582;52.196;20.952;2023-06-22T03:06:58;91.88;;;68.07;;
34317;SDS011;20582;52.196;20.952;2023-06-22T03:09:26;95.95;;;68.68;;
34317;SDS011;20582;52.196;20.952;2023-06-22T03:11:52;95.63;;;69.88;;
34317;SDS011;20582;52.196;20.952;2023-06-22T03:14:18;90.53;;;66.85;;
34317;SDS011;20582;52.196;20.952;2023-06-22T03:16:44;89.20;;;66.35;;
34317;SDS011;20582;52.196;20.952;2023-06-22T03:19:10;84.25;;;64.85;;
34317;SDS011;20582;52.196;20.952;2023-06-22T03:21:37;81.78;;;62.15;;
34317;SDS011;20582;52.196;20.952;2023-06-22T03:24:03;77.22;;;61.28;;
34317;SDS011;20582;52.196;20.952;2023-06-22T03:26:29;78.43;;;62.80;;
34317;SDS011;20582;52.196;20.952;2023-06-22T03:28:55;75.03;;;60.50;;
34317;SDS011;20582;52.196;20.952;2023-06-22T03:31:22;74.65;;;59.60;;
34317;SDS011;20582;52.196;20.952;2023-06-22T03:33:48;77.38;;;60.83;;
34317;SDS011;20582;52.196;20.952;2023-06-22T03:36:14;72.20;;;56.53;;
34317;SDS011;20582;52.196;20.952;2023-06-22T03:38:44;73.22;;;59.58;;
34317;SDS011;20582;52.196;20.952;2023-06-22T03:41:10;69.85;;;56.70;;
34317;SDS011;20582;52.196;20.952;2023-06-22T03:43:36;68.68;;;56.80;;
34317;SDS011;20582;52.196;20.952;2023-06-22T03:46:02;68.10;;;54.55;;
34317;SDS011;20582;52.196;20.952;2023-06-22T03:48:28;73.43;;;55.33;;
34317;SDS011;20582;52.196;20.952;2023-06-22T03:50:54;69.25;;;55.92;;
34317;SDS011;20582;52.196;20.952;2023-06-22T03:53:20;66.03;;;53.28;;
34317;SDS011;20582;52.196;20.952;2023-06-22T03:55:52;64.93;;;54.00;;
34317;SDS011;20582;52.196;20.952;2023-06-22T03:58:19;65.78;;;53.25;;
34317;SDS011;20582;52.196;20.952;2023-06-22T04:00:48;62.58;;;51.15;;
34317;SDS011;20582;52.196;20.952;2023-06-22T04:03:15;61.33;;;51.97;;
34317;SDS011;20582;52.196;20.952;2023-06-22T04:05:41;65.03;;;52.22;;
34317;SDS011;20582;52.196;20.952;2023-06-22T04:08:07;61.47;;;52.03;;
34317;SDS011;20582;52.196;20.952;2023-06-22T04:10:33;60.45;;;49.53;;
34317;SDS011;20582;52.196;20.952;2023-06-22T04:12:59;62.60;;;48.85;;
34317;SDS011;20582;52.196;20.952;2023-06-22T04:15:25;61.58;;;49.55;;
34317;SDS011;20582;52.196;20.952;2023-06-22T04:17:51;57.83;;;47.95;;
34317;SDS011;20582;52.196;20.952;2023-06-22T04:20:17;59.22;;;47.17;;
34317;SDS011;20582;52.196;20.952;2023-06-22T04:22:43;61.05;;;48.88;;
34317;SDS011;20582;52.196;20.952;2023-06-22T04:25:11;59.15;;;49.15;;
34317;SDS011;20582;52.196;20.952;2023-06-22T04:27:37;61.28;;;47.47;;
34317;SDS011;20582;52.196;20.952;2023-06-22T04:30:05;55.63;;;46.22;;
34317;SDS011;20582;52.196;20.952;2023-06-22T04:32:32;54.28;;;45.03;;
34317;SDS011;20582;52.196;20.952;2023-06-22T04:34:58;53.80;;;43.92;;
34317;SDS011;20582;52.196;20.952;2023-06-22T04:37:25;54.30;;;43.92;;
34317;SDS011;20582;52.196;20.952;2023-06-22T04:39:51;51.47;;;43.20;;
34317;SDS011;20582;52.196;20.952;2023-06-22T04:42:18;48.25;;;41.65;;
34317;SDS011;20582;52.196;20.952;2023-06-22T04:44:43;49.28;;;42.55;;
34317;SDS011;20582;52.196;20.952;2023-06-22T04:47:09;48.33;;;40.67;;
34317;SDS011;20582;52.196;20.952;2023-06-22T04:49:36;47.35;;;40.97;;
34317;SDS011;20582;52.196;20.952;2023-06-22T04:52:05;50.97;;;41.10;;
34317;SDS011;20582;52.196;20.952;2023-06-22T04:54:31;49.28;;;38.88;;
34317;SDS011;20582;52.196;20.952;2023-06-22T04:57:01;44.75;;;38.75;;
34317;SDS011;20582;52.196;20.952;2023-06-22T04:59:28;44.42;;;37.83;;
34317;SDS011;20582;52.196;20.952;2023-06-22T05:01:58;47.03;;;36.72;;
34317;SDS011;20582;52.196;20.952;2023-06-22T05:04:25;46.67;;;38.00;;
34317;SDS011;20582;52.196;20.952;2023-06-22T05:06:52;43.38;;;36.75;;
34317;SDS011;20582;52.196;20.952;2023-06-22T05:09:18;43.38;;;36.50;;
34317;SDS011;20582;52.196;20.952;2023-06-22T05:11:44;40.47;;;35.53;;
34317;SDS011;20582;52.196;20.952;2023-06-22T05:14:10;42.05;;;35.53;;
34317;SDS011;20582;52.196;20.952;2023-06-22T05:16:36;40.83;;;34.63;;
34317;SDS011;20582;52.196;20.952;2023-06-22T05:19:02;40.47;;;33.58;;
34317;SDS011;20582;52.196;20.952;2023-06-22T05:21:29;41.58;;;34.75;;
34317;SDS011;20582;52.196;20.952;2023-06-22T05:23:55;44.00;;;34.17;;
34317;SDS011;20582;52.196;20.952;2023-06-22T05:26:25;40.42;;;33.13;;
34317;SDS011;20582;52.196;20.952;2023-06-22T05:28:51;40.50;;;33.05;;
34317;SDS011;20582;52.196;20.952;2023-06-22T05:31:17;41.20;;;34.78;;
34317;SDS011;20582;52.196;20.952;2023-06-22T05:33:44;42.72;;;33.42;;
34317;SDS011;20582;52.196;20.952;2023-06-22T05:36:11;40.10;;;32.30;;
34317;SDS011;20582;52.196;20.952;2023-06-22T05:38:37;39.60;;;32.90;;
34317;SDS011;20582;52.196;20.952;2023-06-22T05:41:04;40.15;;;32.78;;
34317;SDS011;20582;52.196;20.952;2023-06-22T05:43:30;38.70;;;32.28;;
34317;SDS011;20582;52.196;20.952;2023-06-22T05:45:56;36.03;;;31.85;;
34317;SDS011;20582;52.196;20.952;2023-06-22T05:48:22;37.83;;;30.50;;
34317;SDS011;20582;52.196;20.952;2023-06-22T05:50:48;35.78;;;31.67;;
34317;SDS011;20582;52.196;20.952;2023-06-22T05:53:14;37.42;;;31.52;;
34317;SDS011;20582;52.196;20.952;2023-06-22T05:55:40;39.85;;;33.10;;
34317;SDS011;20582;52.196;20.952;2023-06-22T05:58:07;41.50;;;32.00;;
34317;SDS011;20582;52.196;20.952;2023-06-22T06:00:33;40.03;;;32.65;;
34317;SDS011;20582;52.196;20.952;2023-06-22T06:02:59;38.20;;;31.00;;
34317;SDS011;20582;52.196;20.952;2023-06-22T06:05:34;37.17;;;30.58;;
34317;SDS011;20582;52.196;20.952;2023-06-22T06:08:01;35.75;;;29.63;;
34317;SDS011;20582;52.196;20.952;2023-06-22T06:10:27;34.38;;;29.35;;
34317;SDS011;20582;52.196;20.952;2023-06-22T06:12:54;34.97;;;28.83;;
34317;SDS011;20582;52.196;20.952;2023-06-22T06:15:21;33.97;;;28.58;;
34317;SDS011;20582;52.196;20.952;2023-06-22T06:20:13;32.70;;;27.48;;
34317;SDS011;20582;52.196;20.952;2023-06-22T06:22:39;32.72;;;27.45;;
34317;SDS011;20582;52.196;20.952;2023-06-22T06:25:05;34.80;;;28.35;;
34317;SDS011;20582;52.196;20.952;2023-06-22T06:27:31;29.48;;;25.38;;
34317;SDS011;20582;52.196;20.952;2023-06-22T06:29:57;29.98;;;24.55;;
34317;SDS011;20582;52.196;20.952;2023-06-22T06:32:23;29.75;;;24.90;;
34317;SDS011;20582;52.196;20.952;2023-06-22T06:34:49;32.10;;;25.42;;
34317;SDS011;20582;52.196;20.952;2023-06-22T06:37:16;29.73;;;23.80;;
34317;SDS011;20582;52.196;20.952;2023-06-22T06:39:43;28.40;;;23.83;;
34317;SDS011;20582;52.196;20.952;2023-06-22T06:42:09;31.80;;;25.30;;
34317;SDS011;20582;52.196;20.952;2023-06-22T06:44:36;27.40;;;23.42;;
34317;SDS011;20582;52.196;20.952;2023-06-22T06:47:03;28.73;;;22.38;;
34317;SDS011;20582;52.196;20.952;2023-06-22T06:49:29;28.55;;;22.63;;
34317;SDS011;20582;52.196;20.952;2023-06-22T06:51:55;33.28;;;25.05;;
34317;SDS011;20582;52.196;20.952;2023-06-22T06:54:21;29.83;;;21.15;;
34317;SDS011;20582;52.196;20.952;2023-06-22T06:56:47;28.35;;;22.25;;
34317;SDS011;20582;52.196;20.952;2023-06-22T06:59:14;28.42;;;21.90;;
34317;SDS011;20582;52.196;20.952;2023-06-22T07:01:40;24.98;;;20.85;;
34317;SDS011;20582;52.196;20.952;2023-06-22T07:04:06;24.35;;;19.52;;
34317;SDS011;20582;52.196;20.952;2023-06-22T07:06:32;23.33;;;18.77;;
34317;SDS011;20582;52.196;20.952;2023-06-22T07:08:59;23.23;;;20.23;;
34317;SDS011;20582;52.196;20.952;2023-06-22T07:11:25;21.58;;;18.25;;
34317;SDS011;20582;52.196;20.952;2023-06-22T07:13:51;22.67;;;18.08;;
34317;SDS011;20582;52.196;20.952;2023-06-22T07:16:17;23.38;;;17.67;;
34317;SDS011;20582;52.196;20.952;2023-06-22T07:18:43;20.92;;;17.35;;
34317;SDS011;20582;52.196;20.952;2023-06-22T07:21:09;20.23;;;16.52;;
34317;SDS011;20582;52.196;20.952;2023-06-22T07:23:36;23.30;;;17.33;;
34317;SDS011;20582;52.196;20.952;2023-06-22T07:26:02;22.00;;;15.63;;
34317;SDS011;20582;52.196;20.952;2023-06-22T07:28:28;18.83;;;14.27;;
34317;SDS011;20582;52.196;20.952;2023-06-22T07:31:01;19.55;;;15.50;;
34317;SDS011;20582;52.196;20.952;2023-06-22T07:33:28;19.00;;;13.23;;
34317;SDS011;20582;52.196;20.952;2023-06-22T07:35:54;21.00;;;13.20;;
34317;SDS011;20582;52.196;20.952;2023-06-22T07:38:20;18.73;;;13.68;;
34317;SDS011;20582;52.196;20.952;2023-06-22T07:40:46;16.88;;;12.13;;
34317;SDS011;20582;52.196;20.952;2023-06-22T07:43:12;15.73;;;11.27;;
34317;SDS011;20582;52.196;20.952;2023-06-22T07:45:38;17.48;;;12.35;;
34317;SDS011;20582;52.196;20.952;2023-06-22T07:48:05;15.25;;;11.82;;
34317;SDS011;20582;52.196;20.952;2023-06-22T07:50:31;17.02;;;11.73;;
34317;SDS011;20582;52.196;20.952;2023-06-22T07:52:57;16.17;;;10.93;;
34317;SDS011;20582;52.196;20.952;2023-06-22T07:55:23;15.77;;;11.07;;
34317;SDS011;20582;52.196;20.952;2023-06-22T07:57:49;14.93;;;9.70;;
34317;SDS011;20582;52.196;20.952;2023-06-22T08:00:17;16.90;;;10.02;;
34317;SDS011;20582;52.196;20.952;2023-06-22T08:02:44;13.10;;;10.38;;
34317;SDS011;20582;52.196;20.952;2023-06-22T08:05:10;18.27;;;9.77;;
34317;SDS011;20582;52.196;20.952;2023-06-22T08:07:36;13.48;;;9.40;;
34317;SDS011;20582;52.196;20.952;2023-06-22T08:10:03;17.58;;;10.13;;
34317;SDS011;20582;52.196;20.952;2023-06-22T08:12:29;13.73;;;8.60;;
34317;SDS011;20582;52.196;20.952;2023-06-22T08:14:55;12.60;;;9.18;;
34317;SDS011;20582;52.196;20.952;2023-06-22T08:17:22;14.77;;;9.30;;
34317;SDS011;20582;52.196;20.952;2023-06-22T08:19:48;16.42;;;9.23;;
34317;SDS011;20582;52.196;20.952;2023-06-22T08:22:15;16.27;;;9.35;;
34317;SDS011;20582;52.196;20.952;2023-06-22T08:24:41;16.13;;;8.35;;
34317;SDS011;20582;52.196;20.952;2023-06-22T08:27:07;15.98;;;8.43;;
34317;SDS011;20582;52.196;20.952;2023-06-22T08:29:34;13.98;;;8.88;;
34317;SDS011;20582;52.196;20.952;2023-06-22T08:32:02;15.40;;;8.48;;
34317;SDS011;20582;52.196;20.952;2023-06-22T08:34:28;12.40;;;8.38;;
34317;SDS011;20582;52.196;20.952;2023-06-22T08:36:54;11.48;;;8.30;;
34317;SDS011;20582;52.196;20.952;2023-06-22T08:39:20;14.98;;;8.00;;
34317;SDS011;20582;52.196;20.952;2023-06-22T08:41:46;14.52;;;7.88;;
34317;SDS011;20582;52.196;20.952;2023-06-22T08:44:12;14.98;;;7.88;;
34317;SDS011;20582;52.196;20.952;2023-06-22T08:46:39;12.77;;;7.68;;
34317;SDS011;20582;52.196;20.952;2023-06-22T08:49:06;12.50;;;7.25;;
34317;SDS011;20582;52.196;20.952;2023-06-22T08:51:32;10.77;;;7.28;;
34317;SDS011;20582;52.196;20.952;2023-06-22T08:53:58;10.95;;;6.60;;
34317;SDS011;20582;52.196;20.952;2023-06-22T08:56:24;10.90;;;6.95;;
34317;SDS011;20582;52.196;20.952;2023-06-22T08:58:49;12.02;;;6.70;;
34317;SDS011;20582;52.196;20.952;2023-06-22T09:01:15;12.30;;;6.22;;
34317;SDS011;20582;52.196;20.952;2023-06-22T09:03:42;11.23;;;6.05;;
34317;SDS011;20582;52.196;20.952;2023-06-22T09:06:08;12.27;;;6.07;;
34317;SDS011;20582;52.196;20.952;2023-06-22T09:08:34;10.82;;;5.85;;
34317;SDS011;20582;52.196;20.952;2023-06-22T09:11:01;9.88;;;5.07;;
34317;SDS011;20582;52.196;20.952;2023-06-22T09:13:27;10.10;;;5.38;;
34317;SDS011;20582;52.196;20.952;2023-06-22T09:15:54;10.55;;;5.20;;
34317;SDS011;20582;52.196;20.952;2023-06-22T09:18:19;9.50;;;5.32;;
34317;SDS011;20582;52.196;20.952;2023-06-22T09:20:45;8.52;;;5.00;;
34317;SDS011;20582;52.196;20.952;2023-06-22T09:23:11;9.18;;;5.40;;
34317;SDS011;20582;52.196;20.952;2023-06-22T09:25:37;9.65;;;5.03;;
34317;SDS011;20582;52.196;20.952;2023-06-22T09:28:05;9.50;;;4.75;;
34317;SDS011;20582;52.196;20.952;2023-06-22T09:30:31;8.30;;;4.68;;
34317;SDS011;20582;52.196;20.952;2023-06-22T09:32:57;9.35;;;4.70;;
34317;SDS011;20582;52.196;20.952;2023-06-22T09:35:22;11.73;;;4.70;;
34317;SDS011;20582;52.196;20.952;2023-06-22T09:37:48;9.02;;;4.43;;
34317;SDS011;20582;52.196;20.952;2023-06-22T09:40:14;11.02;;;5.03;;
34317;SDS011;20582;52.196;20.952;2023-06-22T09:42:41;7.03;;;4.72;;
34317;SDS011;20582;52.196;20.952;2023-06-22T09:45:08;6.65;;;4.65;;
34317;SDS011;20582;52.196;20.952;2023-06-22T09:47:34;10.35;;;5.60;;
34317;SDS011;20582;52.196;20.952;2023-06-22T09:50:00;7.28;;;4.97;;
34317;SDS011;20582;52.196;20.952;2023-06-22T09:52:26;6.88;;;5.18;;
34317;SDS011;20582;52.196;20.952;2023-06-22T09:54:52;8.85;;;5.00;;
34317;SDS011;20582;52.196;20.952;2023-06-22T09:57:18;7.15;;;4.93;;
34317;SDS011;20582;52.196;20.952;2023-06-22T09:59:44;7.38;;;5.00;;
34317;SDS011;20582;52.196;20.952;2023-06-22T10:02:10;7.10;;;5.15;;
34317;SDS011;20582;52.196;20.952;2023-06-22T10:04:36;7.60;;;5.40;;
34317;SDS011;20582;52.196;20.952;2023-06-22T10:07:02;7.47;;;4.60;;
34317;SDS011;20582;52.196;20.952;2023-06-22T10:09:28;8.57;;;5.53;;
34317;SDS011;20582;52.196;20.952;2023-06-22T10:11:54;8.55;;;5.28;;
34317;SDS011;20582;52.196;20.952;2023-06-22T10:14:20;10.48;;;5.30;;
34317;SDS011;20582;52.196;20.952;2023-06-22T10:16:46;9.70;;;5.20;;
34317;SDS011;20582;52.196;20.952;2023-06-22T10:19:12;7.63;;;5.70;;
34317;SDS011;20582;52.196;20.952;2023-06-22T10:21:38;7.78;;;5.00;;
34317;SDS011;20582;52.196;20.952;2023-06-22T10:24:04;8.65;;;5.15;;
34317;SDS011;20582;52.196;20.952;2023-06-22T10:26:33;10.10;;;5.88;;
34317;SDS011;20582;52.196;20.952;2023-06-22T10:28:59;8.27;;;5.40;;
34317;SDS011;20582;52.196;20.952;2023-06-22T10:31:26;9.65;;;5.80;;
34317;SDS011;20582;52.196;20.952;2023-06-22T10:33:52;7.72;;;5.10;;
34317;SDS011;20582;52.196;20.952;2023-06-22T10:36:19;13.27;;;5.70;;
34317;SDS011;20582;52.196;20.952;2023-06-22T10:38:45;7.28;;;5.38;;
34317;SDS011;20582;52.196;20.952;2023-06-22T10:41:12;10.77;;;5.85;;
34317;SDS011;20582;52.196;20.952;2023-06-22T10:43:38;11.45;;;5.32;;
34317;SDS011;20582;52.196;20.952;2023-06-22T10:46:04;10.85;;;5.40;;
34317;SDS011;20582;52.196;20.952;2023-06-22T10:48:29;9.65;;;5.32;;
34317;SDS011;20582;52.196;20.952;2023-06-22T10:50:55;10.35;;;5.80;;
34317;SDS011;20582;52.196;20.952;2023-06-22T10:53:21;10.15;;;5.82;;
34317;SDS011;20582;52.196;20.952;2023-06-22T10:55:47;7.75;;;5.45;;
34317;SDS011;20582;52.196;20.952;2023-06-22T10:58:13;10.43;;;5.43;;
34317;SDS011;20582;52.196;20.952;2023-06-22T11:00:39;7.03;;;5.15;;
34317;SDS011;20582;52.196;20.952;2023-06-22T11:03:05;12.85;;;5.78;;
34317;SDS011;20582;52.196;20.952;2023-06-22T11:05:31;12.45;;;5.78;;
34317;SDS011;20582;52.196;20.952;2023-06-22T11:07:57;9.15;;;6.28;;
34317;SDS011;20582;52.196;20.952;2023-06-22T11:10:24;9.55;;;5.90;;
34317;SDS011;20582;52.196;20.952;2023-06-22T11:12:51;7.85;;;5.57;;
34317;SDS011;20582;52.196;20.952;2023-06-22T11:15:18;11.45;;;6.03;;
34317;SDS011;20582;52.196;20.952;2023-06-22T11:17:44;8.70;;;5.40;;
34317;SDS011;20582;52.196;20.952;2023-06-22T11:20:10;7.70;;;5.43;;
34317;SDS011;20582;52.196;20.952;2023-06-22T11:22:39;7.30;;;5.68;;
34317;SDS011;20582;52.196;20.952;2023-06-22T11:25:06;7.80;;;6.07;;
34317;SDS011;20582;52.196;20.952;2023-06-22T11:27:32;10.75;;;5.65;;
34317;SDS011;20582;52.196;20.952;2023-06-22T11:29:58;9.68;;;6.18;;
34317;SDS011;20582;52.196;20.952;2023-06-22T11:32:24;9.10;;;6.03;;
34317;SDS011;20582;52.196;20.952;2023-06-22T11:34:50;9.32;;;6.18;;
34317;SDS011;20582;52.196;20.952;2023-06-22T11:37:16;8.13;;;5.93;;
34317;SDS011;20582;52.196;20.952;2023-06-22T11:39:42;9.05;;;6.15;;
34317;SDS011;20582;52.196;20.952;2023-06-22T11:42:11;9.23;;;5.60;;
34317;SDS011;20582;52.196;20.952;2023-06-22T11:44:37;10.40;;;5.77;;
34317;SDS011;20582;52.196;20.952;2023-06-22T11:47:03;9.48;;;6.18;;
34317;SDS011;20582;52.196;20.952;2023-06-22T11:49:30;10.23;;;6.10;;
34317;SDS011;20582;52.196;20.952;2023-06-22T11:51:56;9.27;;;5.82;;
34317;SDS011;20582;52.196;20.952;2023-06-22T11:54:22;9.43;;;5.65;;
34317;SDS011;20582;52.196;20.952;2023-06-22T11:56:48;7.88;;;5.93;;
34317;SDS011;20582;52.196;20.952;2023-06-22T11:59:14;9.80;;;6.00;;
34317;SDS011;20582;52.196;20.952;2023-06-22T12:01:40;8.57;;;6.05;;
34317;SDS011;20582;52.196;20.952;2023-06-22T12:04:06;8.35;;;5.60;;
34317;SDS011;20582;52.196;20.952;2023-06-22T12:06:32;10.55;;;5.70;;
34317;SDS011;20582;52.196;20.952;2023-06-22T12:08:58;13.77;;;5.63;;
34317;SDS011;20582;52.196;20.952;2023-06-22T12:11:24;8.55;;;5.13;;
34317;SDS011;20582;52.196;20.952;2023-06-22T12:13:50;11.80;;;5.45;;
34317;SDS011;20582;52.196;20.952;2023-06-22T12:16:16;7.63;;;5.30;;
34317;SDS011;20582;52.196;20.952;2023-06-22T12:18:42;7.00;;;5.63;;
34317;SDS011;20582;52.196;20.952;2023-06-22T12:21:08;7.95;;;5.40;;
34317;SDS011;20582;52.196;20.952;2023-06-22T12:23:34;9.23;;;5.63;;
34317;SDS011;20582;52.196;20.952;2023-06-22T12:26:00;9.07;;;5.38;;
34317;SDS011;20582;52.196;20.952;2023-06-22T12:28:26;9.55;;;5.13;;
34317;SDS011;20582;52.196;20.952;2023-06-22T12:30:52;8.25;;;5.72;;
34317;SDS011;20582;52.196;20.952;2023-06-22T12:33:18;9.02;;;5.30;;
34317;SDS011;20582;52.196;20.952;2023-06-22T12:35:45;7.05;;;5.13;;
34317;SDS011;20582;52.196;20.952;2023-06-22T12:38:13;8.35;;;5.55;;
34317;SDS011;20582;52.196;20.952;2023-06-22T12:40:40;8.70;;;5.53;;
34317;SDS011;20582;52.196;20.952;2023-06-22T12:43:05;9.43;;;5.80;;
34317;SDS011;20582;52.196;20.952;2023-06-22T12:45:32;10.27;;;5.00;;
34317;SDS011;20582;52.196;20.952;2023-06-22T12:47:59;7.82;;;5.40;;
34317;SDS011;20582;52.196;20.952;2023-06-22T12:50:26;8.30;;;5.50;;
34317;SDS011;20582;52.196;20.952;2023-06-22T12:52:52;8.85;;;5.15;;
34317;SDS011;20582;52.196;20.952;2023-06-22T12:55:18;7.30;;;5.18;;
34317;SDS011;20582;52.196;20.952;2023-06-22T12:57:44;8.75;;;5.35;;
34317;SDS011;20582;52.196;20.952;2023-06-22T13:00:11;8.85;;;5.28;;
34317;SDS011;20582;52.196;20.952;2023-06-22T13:02:37;8.93;;;5.10;;
34317;SDS011;20582;52.196;20.952;2023-06-22T13:05:03;8.93;;;4.78;;
34317;SDS011;20582;52.196;20.952;2023-06-22T13:07:30;10.50;;;5.05;;
34317;SDS011;20582;52.196;20.952;2023-06-22T13:09:56;8.38;;;5.25;;
34317;SDS011;20582;52.196;20.952;2023-06-22T13:12:22;7.03;;;5.03;;
34317;SDS011;20582;52.196;20.952;2023-06-22T13:14:48;10.00;;;5.70;;
34317;SDS011;20582;52.196;20.952;2023-06-22T13:17:14;8.60;;;5.05;;
34317;SDS011;20582;52.196;20.952;2023-06-22T13:19:40;8.95;;;5.05;;
34317;SDS011;20582;52.196;20.952;2023-06-22T13:22:28;6.15;;;4.60;;
34317;SDS011;20582;52.196;20.952;2023-06-22T13:24:55;9.65;;;5.05;;
34317;SDS011;20582;52.196;20.952;2023-06-22T13:27:21;8.35;;;5.07;;
34317;SDS011;20582;52.196;20.952;2023-06-22T13:29:47;7.90;;;4.60;;
34317;SDS011;20582;52.196;20.952;2023-06-22T13:32:13;8.18;;;4.55;;
34317;SDS011;20582;52.196;20.952;2023-06-22T13:34:39;8.40;;;4.97;;
34317;SDS011;20582;52.196;20.952;2023-06-22T13:37:05;12.00;;;5.28;;
34317;SDS011;20582;52.196;20.952;2023-06-22T13:39:31;7.68;;;4.93;;
34317;SDS011;20582;52.196;20.952;2023-06-22T13:41:57;11.98;;;4.93;;
34317;SDS011;20582;52.196;20.952;2023-06-22T13:44:23;14.52;;;4.82;;
34317;SDS011;20582;52.196;20.952;2023-06-22T13:46:53;9.30;;;4.93;;
34317;SDS011;20582;52.196;20.952;2023-06-22T13:49:19;13.63;;;5.03;;
34317;SDS011;20582;52.196;20.952;2023-06-22T13:51:46;7.25;;;4.55;;
34317;SDS011;20582;52.196;20.952;2023-06-22T13:54:13;8.60;;;4.43;;
34317;SDS011;20582;52.196;20.952;2023-06-22T13:56:39;8.85;;;4.78;;
34317;SDS011;20582;52.196;20.952;2023-06-22T13:59:05;7.05;;;4.82;;
34317;SDS011;20582;52.196;20.952;2023-06-22T14:01:34;7.78;;;4.80;;
34317;SDS011;20582;52.196;20.952;2023-06-22T14:04:00;7.95;;;5.03;;
34317;SDS011;20582;52.196;20.952;2023-06-22T14:06:27;10.65;;;7.90;;
34317;SDS011;20582;52.196;20.952;2023-06-22T14:08:53;7.10;;;4.13;;
34317;SDS011;20582;52.196;20.952;2023-06-22T14:11:19;10.63;;;4.85;;
34317;SDS011;20582;52.196;20.952;2023-06-22T14:13:45;9.52;;;4.78;;
34317;SDS011;20582;52.196;20.952;2023-06-22T14:16:11;8.23;;;4.75;;
34317;SDS011;20582;52.196;20.952;2023-06-22T14:18:37;6.13;;;4.70;;
34317;SDS011;20582;52.196;20.952;2023-06-22T14:21:03;8.80;;;4.85;;
34317;SDS011;20582;52.196;20.952;2023-06-22T14:23:29;10.32;;;5.32;;
34317;SDS011;20582;52.196;20.952;2023-06-22T14:25:55;8.70;;;5.30;;
34317;SDS011;20582;52.196;20.952;2023-06-22T14:28:21;8.55;;;5.47;;